sensor_id;sensor_type;location;lat;lon;timestamp;temperature;humidity
13817;DHT22;6979;52.116;5.286;2023-09-19T00:00:56;18.60;99.90
13817;DHT22;6979;52.116;5.286;2023-09-19T00:03:23;18.60;99.90
13817;DHT22;6979;52.116;5.286;2023-09-19T00:05:51;18.50;99.90
13817;DHT22;6979;52.116;5.286;2023-09-19T00:08:18;18.50;99.90
13817;DHT22;6979;52.116;5.286;2023-09-19T00:10:49;18.50;99.90
13817;DHT22;6979;52.116;5.286;2023-09-19T00:13:15;18.40;99.90
13817;DHT22;6979;52.116;5.286;2023-09-19T00:15:44;18.40;99.90
13817;DHT22;6979;52.116;5.286;2023-09-19T00:18:14;18.40;99.90
13817;DHT22;6979;52.116;5.286;2023-09-19T00:20:42;18.40;99.90
13817;DHT22;6979;52.116;5.286;2023-09-19T00:23:16;18.30;99.90
13817;DHT22;6979;52.116;5.286;2023-09-19T00:25:42;18.30;99.90
13817;DHT22;6979;52.116;5.286;2023-09-19T00:28:10;18.30;99.90
13817;DHT22;6979;52.116;5.286;2023-09-19T00:30:37;18.30;99.90
13817;DHT22;6979;52.116;5.286;2023-09-19T00:33:05;18.30;99.90
13817;DHT22;6979;52.116;5.286;2023-09-19T00:35:33;18.30;99.90
13817;DHT22;6979;52.116;5.286;2023-09-19T00:38:00;18.30;99.90
13817;DHT22;6979;52.116;5.286;2023-09-19T00:40:29;18.20;99.90
13817;DHT22;6979;52.116;5.286;2023-09-19T00:42:57;18.20;99.90
13817;DHT22;6979;52.116;5.286;2023-09-19T00:45:25;18.20;99.90
13817;DHT22;6979;52.116;5.286;2023-09-19T00:47:54;18.20;99.90
13817;DHT22;6979;52.116;5.286;2023-09-19T00:50:24;18.20;99.90
13817;DHT22;6979;52.116;5.286;2023-09-19T00:52:54;18.20;99.90
13817;DHT22;6979;52.116;5.286;2023-09-19T00:55:23;18.20;99.90
13817;DHT22;6979;52.116;5.286;2023-09-19T00:57:52;18.20;99.90
13817;DHT22;6979;52.116;5.286;2023-09-19T01:00:21;18.20;99.90
13817;DHT22;6979;52.116;5.286;2023-09-19T01:02:49;18.20;99.90
13817;DHT22;6979;52.116;5.286;2023-09-19T01:05:16;18.20;99.90
13817;DHT22;6979;52.116;5.286;2023-09-19T01:07:44;18.30;99.90
13817;DHT22;6979;52.116;5.286;2023-09-19T01:10:20;18.30;99.90
13817;DHT22;6979;52.116;5.286;2023-09-19T01:12:59;18.30;99.90
13817;DHT22;6979;52.116;5.286;2023-09-19T01:15:40;18.30;99.90
13817;DHT22;6979;52.116;5.286;2023-09-19T01:18:16;18.30;99.90
13817;DHT22;6979;52.116;5.286;2023-09-19T01:20:54;18.30;99.90
13817;DHT22;6979;52.116;5.286;2023-09-19T01:23:29;18.30;99.90
13817;DHT22;6979;52.116;5.286;2023-09-19T01:26:06;18.30;99.90
13817;DHT22;6979;52.116;5.286;2023-09-19T01:28:46;18.30;99.90
13817;DHT22;6979;52.116;5.286;2023-09-19T01:31:21;18.30;99.90
13817;DHT22;6979;52.116;5.286;2023-09-19T01:33:58;18.30;99.90
13817;DHT22;6979;52.116;5.286;2023-09-19T01:36:30;18.30;99.90
13817;DHT22;6979;52.116;5.286;2023-09-19T01:39:00;18.30;99.90
13817;DHT22;6979;52.116;5.286;2023-09-19T01:41:47;18.30;99.90
13817;DHT22;6979;52.116;5.286;2023-09-19T01:44:21;18.30;99.90
13817;DHT22;6979;52.116;5.286;2023-09-19T01:46:52;18.30;99.90
13817;DHT22;6979;52.116;5.286;2023-09-19T01:49:27;18.30;99.90
13817;DHT22;6979;52.116;5.286;2023-09-19T01:52:00;18.30;99.90
13817;DHT22;6979;52.116;5.286;2023-09-19T01:54:32;18.30;99.90
13817;DHT22;6979;52.116;5.286;2023-09-19T01:57:08;18.30;99.90
13817;DHT22;6979;52.116;5.286;2023-09-19T01:59:43;18.30;99.90
13817;DHT22;6979;52.116;5.286;2023-09-19T02:02:14;18.30;99.90
13817;DHT22;6979;52.116;5.286;2023-09-19T02:04:42;18.30;99.90
13817;DHT22;6979;52.116;5.286;2023-09-19T02:07:09;18.30;99.90
13817;DHT22;6979;52.116;5.286;2023-09-19T02:09:36;18.30;99.90
13817;DHT22;6979;52.116;5.286;2023-09-19T02:12:05;18.30;99.90
13817;DHT22;6979;52.116;5.286;2023-09-19T02:14:32;18.30;99.90
13817;DHT22;6979;52.116;5.286;2023-09-19T02:17:02;18.30;99.90
13817;DHT22;6979;52.116;5.286;2023-09-19T02:19:32;18.30;99.90
13817;DHT22;6979;52.116;5.286;2023-09-19T02:21:59;18.30;99.90
13817;DHT22;6979;52.116;5.286;2023-09-19T02:24:29;18.20;99.90
13817;DHT22;6979;52.116;5.286;2023-09-19T02:26:56;18.20;99.90
13817;DHT22;6979;52.116;5.286;2023-09-19T02:29:25;18.20;99.90
13817;DHT22;6979;52.116;5.286;2023-09-19T02:31:53;18.20;99.90
13817;DHT22;6979;52.116;5.286;2023-09-19T02:34:21;18.20;99.90
13817;DHT22;6979;52.116;5.286;2023-09-19T02:36:51;18.20;99.90
13817;DHT22;6979;52.116;5.286;2023-09-19T02:39:19;18.20;99.90
13817;DHT22;6979;52.116;5.286;2023-09-19T02:41:46;18.20;99.90
13817;DHT22;6979;52.116;5.286;2023-09-19T02:44:12;18.20;99.90
13817;DHT22;6979;52.116;5.286;2023-09-19T02:46:39;18.20;99.90
13817;DHT22;6979;52.116;5.286;2023-09-19T02:49:08;18.20;99.90
13817;DHT22;6979;52.116;5.286;2023-09-19T02:51:35;18.20;99.90
13817;DHT22;6979;52.116;5.286;2023-09-19T02:54:03;18.20;99.90
13817;DHT22;6979;52.116;5.286;2023-09-19T02:56:31;18.10;99.90
13817;DHT22;6979;52.116;5.286;2023-09-19T02:58:58;18.10;99.90
13817;DHT22;6979;52.116;5.286;2023-09-19T03:01:26;18.10;99.90
13817;DHT22;6979;52.116;5.286;2023-09-19T03:03:53;18.00;99.90
13817;DHT22;6979;52.116;5.286;2023-09-19T03:06:20;18.00;99.90
13817;DHT22;6979;52.116;5.286;2023-09-19T03:08:48;18.00;99.90
13817;DHT22;6979;52.116;5.286;2023-09-19T03:11:19;17.90;99.90
13817;DHT22;6979;52.116;5.286;2023-09-19T03:13:51;17.90;99.90
13817;DHT22;6979;52.116;5.286;2023-09-19T03:16:19;17.90;99.90
13817;DHT22;6979;52.116;5.286;2023-09-19T03:18:49;17.80;99.90
13817;DHT22;6979;52.116;5.286;2023-09-19T03:21:17;17.80;99.90
13817;DHT22;6979;52.116;5.286;2023-09-19T03:23:45;17.70;99.90
13817;DHT22;6979;52.116;5.286;2023-09-19T03:26:12;17.70;99.90
13817;DHT22;6979;52.116;5.286;2023-09-19T03:28:43;17.70;99.90
13817;DHT22;6979;52.116;5.286;2023-09-19T03:31:11;17.60;99.90
13817;DHT22;6979;52.116;5.286;2023-09-19T03:33:39;17.60;99.90
13817;DHT22;6979;52.116;5.286;2023-09-19T03:36:06;17.60;99.90
13817;DHT22;6979;52.116;5.286;2023-09-19T03:38:34;17.50;99.90
13817;DHT22;6979;52.116;5.286;2023-09-19T03:41:01;17.50;99.90
13817;DHT22;6979;52.116;5.286;2023-09-19T03:43:27;17.50;99.90
13817;DHT22;6979;52.116;5.286;2023-09-19T03:45:56;17.50;99.90
13817;DHT22;6979;52.116;5.286;2023-09-19T03:48:23;17.40;99.90
13817;DHT22;6979;52.116;5.286;2023-09-19T03:50:51;17.40;99.90
13817;DHT22;6979;52.116;5.286;2023-09-19T03:53:19;17.40;99.90
13817;DHT22;6979;52.116;5.286;2023-09-19T03:55:46;17.40;99.90
13817;DHT22;6979;52.116;5.286;2023-09-19T03:58:13;17.40;99.90
13817;DHT22;6979;52.116;5.286;2023-09-19T04:00:40;17.30;99.90
13817;DHT22;6979;52.116;5.286;2023-09-19T04:03:08;17.30;99.90
13817;DHT22;6979;52.116;5.286;2023-09-19T04:05:46;17.30;99.90
13817;DHT22;6979;52.116;5.286;2023-09-19T04:08:13;17.30;99.90
13817;DHT22;6979;52.116;5.286;2023-09-19T04:10:42;17.30;99.90
13817;DHT22;6979;52.116;5.286;2023-09-19T04:13:10;17.30;99.90
13817;DHT22;6979;52.116;5.286;2023-09-19T04:15:37;17.20;99.90
13817;DHT22;6979;52.116;5.286;2023-09-19T04:18:05;17.20;99.90
13817;DHT22;6979;52.116;5.286;2023-09-19T04:20:34;17.20;99.90
13817;DHT22;6979;52.116;5.286;2023-09-19T04:23:01;17.20;99.90
13817;DHT22;6979;52.116;5.286;2023-09-19T04:25:27;17.20;99.90
13817;DHT22;6979;52.116;5.286;2023-09-19T04:27:55;17.20;99.90
13817;DHT22;6979;52.116;5.286;2023-09-19T04:30:21;17.20;99.90
13817;DHT22;6979;52.116;5.286;2023-09-19T04:32:48;17.20;99.90
13817;DHT22;6979;52.116;5.286;2023-09-19T04:35:17;17.10;99.90
13817;DHT22;6979;52.116;5.286;2023-09-19T04:37:45;17.10;99.90
13817;DHT22;6979;52.116;5.286;2023-09-19T04:40:14;17.10;99.90
13817;DHT22;6979;52.116;5.286;2023-09-19T04:42:43;17.10;99.90
13817;DHT22;6979;52.116;5.286;2023-09-19T04:45:11;17.10;99.90
13817;DHT22;6979;52.116;5.286;2023-09-19T04:47:38;17.10;99.90
13817;DHT22;6979;52.116;5.286;2023-09-19T04:50:09;17.10;99.90
13817;DHT22;6979;52.116;5.286;2023-09-19T04:52:40;17.10;99.90
13817;DHT22;6979;52.116;5.286;2023-09-19T04:55:11;17.10;99.90
13817;DHT22;6979;52.116;5.286;2023-09-19T04:57:42;17.10;99.90
13817;DHT22;6979;52.116;5.286;2023-09-19T05:00:11;17.10;99.90
13817;DHT22;6979;52.116;5.286;2023-09-19T05:02:40;17.00;99.90
13817;DHT22;6979;52.116;5.286;2023-09-19T05:05:07;17.00;99.90
13817;DHT22;6979;52.116;5.286;2023-09-19T05:07:35;17.00;99.90
13817;DHT22;6979;52.116;5.286;2023-09-19T05:10:03;17.00;99.90
13817;DHT22;6979;52.116;5.286;2023-09-19T05:12:34;17.00;99.90
13817;DHT22;6979;52.116;5.286;2023-09-19T05:15:01;17.00;99.90
13817;DHT22;6979;52.116;5.286;2023-09-19T05:17:29;16.90;99.90
13817;DHT22;6979;52.116;5.286;2023-09-19T05:19:56;16.90;99.90
13817;DHT22;6979;52.116;5.286;2023-09-19T05:22:23;16.90;99.90
13817;DHT22;6979;52.116;5.286;2023-09-19T05:24:51;16.90;99.90
13817;DHT22;6979;52.116;5.286;2023-09-19T05:27:18;16.90;99.90
13817;DHT22;6979;52.116;5.286;2023-09-19T05:29:48;16.90;99.90
13817;DHT22;6979;52.116;5.286;2023-09-19T05:32:16;16.90;99.90
13817;DHT22;6979;52.116;5.286;2023-09-19T05:34:45;16.90;99.90
13817;DHT22;6979;52.116;5.286;2023-09-19T05:37:13;16.90;99.90
13817;DHT22;6979;52.116;5.286;2023-09-19T05:39:41;16.90;99.90
13817;DHT22;6979;52.116;5.286;2023-09-19T05:42:08;17.00;99.90
13817;DHT22;6979;52.116;5.286;2023-09-19T05:44:35;17.00;99.90
13817;DHT22;6979;52.116;5.286;2023-09-19T05:47:04;17.00;99.90
13817;DHT22;6979;52.116;5.286;2023-09-19T05:49:31;17.00;99.90
13817;DHT22;6979;52.116;5.286;2023-09-19T05:51:58;17.00;99.90
13817;DHT22;6979;52.116;5.286;2023-09-19T05:54:26;17.00;99.90
13817;DHT22;6979;52.116;5.286;2023-09-19T05:56:54;17.10;99.90
13817;DHT22;6979;52.116;5.286;2023-09-19T05:59:20;17.10;99.90
13817;DHT22;6979;52.116;5.286;2023-09-19T06:01:48;17.10;99.90
13817;DHT22;6979;52.116;5.286;2023-09-19T06:04:16;17.10;99.90
13817;DHT22;6979;52.116;5.286;2023-09-19T06:06:44;17.20;99.90
13817;DHT22;6979;52.116;5.286;2023-09-19T06:09:14;17.20;99.90
13817;DHT22;6979;52.116;5.286;2023-09-19T06:11:41;17.30;99.90
13817;DHT22;6979;52.116;5.286;2023-09-19T06:14:08;17.30;99.90
13817;DHT22;6979;52.116;5.286;2023-09-19T06:16:36;17.40;99.90
13817;DHT22;6979;52.116;5.286;2023-09-19T06:19:03;17.40;99.90
13817;DHT22;6979;52.116;5.286;2023-09-19T06:21:33;17.40;99.90
13817;DHT22;6979;52.116;5.286;2023-09-19T06:24:00;17.50;99.90
13817;DHT22;6979;52.116;5.286;2023-09-19T06:26:29;17.50;99.90
13817;DHT22;6979;52.116;5.286;2023-09-19T06:28:56;17.50;99.90
13817;DHT22;6979;52.116;5.286;2023-09-19T06:31:23;17.60;99.90
13817;DHT22;6979;52.116;5.286;2023-09-19T06:33:51;17.60;99.90
13817;DHT22;6979;52.116;5.286;2023-09-19T06:36:18;17.60;99.90
13817;DHT22;6979;52.116;5.286;2023-09-19T06:38:47;17.70;99.90
13817;DHT22;6979;52.116;5.286;2023-09-19T06:41:14;17.70;99.90
13817;DHT22;6979;52.116;5.286;2023-09-19T06:43:42;17.70;99.90
13817;DHT22;6979;52.116;5.286;2023-09-19T06:46:09;17.70;99.90
13817;DHT22;6979;52.116;5.286;2023-09-19T06:48:38;17.80;99.90
13817;DHT22;6979;52.116;5.286;2023-09-19T06:51:07;17.80;99.90
13817;DHT22;6979;52.116;5.286;2023-09-19T06:53:34;17.80;99.90
13817;DHT22;6979;52.116;5.286;2023-09-19T06:56:03;17.90;99.90
13817;DHT22;6979;52.116;5.286;2023-09-19T06:58:30;17.90;99.90
13817;DHT22;6979;52.116;5.286;2023-09-19T07:00:58;18.00;99.90
13817;DHT22;6979;52.116;5.286;2023-09-19T07:03:25;18.00;99.90
13817;DHT22;6979;52.116;5.286;2023-09-19T07:05:54;18.00;99.90
13817;DHT22;6979;52.116;5.286;2023-09-19T07:08:21;18.10;99.90
13817;DHT22;6979;52.116;5.286;2023-09-19T07:10:48;18.10;99.90
13817;DHT22;6979;52.116;5.286;2023-09-19T07:13:16;18.20;99.90
13817;DHT22;6979;52.116;5.286;2023-09-19T07:15:44;18.20;99.90
13817;DHT22;6979;52.116;5.286;2023-09-19T07:18:14;18.20;99.90
13817;DHT22;6979;52.116;5.286;2023-09-19T07:20:42;18.30;99.90
13817;DHT22;6979;52.116;5.286;2023-09-19T07:23:15;18.30;99.90
13817;DHT22;6979;52.116;5.286;2023-09-19T07:25:42;18.40;99.90
13817;DHT22;6979;52.116;5.286;2023-09-19T07:28:09;18.40;99.90
13817;DHT22;6979;52.116;5.286;2023-09-19T07:30:38;18.50;99.90
13817;DHT22;6979;52.116;5.286;2023-09-19T07:33:07;18.50;99.90
13817;DHT22;6979;52.116;5.286;2023-09-19T07:35:36;18.60;99.90
13817;DHT22;6979;52.116;5.286;2023-09-19T07:38:05;18.60;99.90
13817;DHT22;6979;52.116;5.286;2023-09-19T07:40:32;18.60;99.90
13817;DHT22;6979;52.116;5.286;2023-09-19T07:42:59;18.70;99.90
13817;DHT22;6979;52.116;5.286;2023-09-19T07:45:27;18.70;99.90
13817;DHT22;6979;52.116;5.286;2023-09-19T07:47:57;18.80;99.90
13817;DHT22;6979;52.116;5.286;2023-09-19T07:50:24;18.90;99.90
13817;DHT22;6979;52.116;5.286;2023-09-19T07:52:52;18.90;99.90
13817;DHT22;6979;52.116;5.286;2023-09-19T07:55:21;19.00;99.90
13817;DHT22;6979;52.116;5.286;2023-09-19T07:57:51;19.10;99.90
13817;DHT22;6979;52.116;5.286;2023-09-19T08:00:18;19.10;99.90
13817;DHT22;6979;52.116;5.286;2023-09-19T08:02:45;19.20;99.90
13817;DHT22;6979;52.116;5.286;2023-09-19T08:05:14;19.20;99.90
13817;DHT22;6979;52.116;5.286;2023-09-19T08:07:43;19.20;99.90
13817;DHT22;6979;52.116;5.286;2023-09-19T08:10:11;19.30;99.90
13817;DHT22;6979;52.116;5.286;2023-09-19T08:12:39;19.30;99.90
13817;DHT22;6979;52.116;5.286;2023-09-19T08:15:12;19.40;99.90
13817;DHT22;6979;52.116;5.286;2023-09-19T08:17:40;19.40;99.90
13817;DHT22;6979;52.116;5.286;2023-09-19T08:20:08;19.50;99.90
13817;DHT22;6979;52.116;5.286;2023-09-19T08:22:43;19.50;99.90
13817;DHT22;6979;52.116;5.286;2023-09-19T08:25:12;19.60;99.90
13817;DHT22;6979;52.116;5.286;2023-09-19T08:27:39;19.70;99.90
13817;DHT22;6979;52.116;5.286;2023-09-19T08:30:06;19.70;99.90
13817;DHT22;6979;52.116;5.286;2023-09-19T08:32:33;19.80;99.90
13817;DHT22;6979;52.116;5.286;2023-09-19T08:35:00;19.80;99.90
13817;DHT22;6979;52.116;5.286;2023-09-19T08:37:27;19.90;99.90
13817;DHT22;6979;52.116;5.286;2023-09-19T08:39:55;20.00;99.90
13817;DHT22;6979;52.116;5.286;2023-09-19T08:42:23;20.00;99.90
13817;DHT22;6979;52.116;5.286;2023-09-19T08:44:51;20.10;99.90
13817;DHT22;6979;52.116;5.286;2023-09-19T08:47:32;20.10;99.90
13817;DHT22;6979;52.116;5.286;2023-09-19T08:50:04;20.20;99.90
13817;DHT22;6979;52.116;5.286;2023-09-19T08:52:42;20.30;99.90
13817;DHT22;6979;52.116;5.286;2023-09-19T08:55:13;20.30;99.90
13817;DHT22;6979;52.116;5.286;2023-09-19T08:57:46;20.40;99.90
13817;DHT22;6979;52.116;5.286;2023-09-19T09:00:16;20.50;99.90
13817;DHT22;6979;52.116;5.286;2023-09-19T09:02:47;20.60;99.90
13817;DHT22;6979;52.116;5.286;2023-09-19T09:05:15;20.60;99.90
13817;DHT22;6979;52.116;5.286;2023-09-19T09:07:48;20.80;99.90
13817;DHT22;6979;52.116;5.286;2023-09-19T09:10:18;21.10;99.90
13817;DHT22;6979;52.116;5.286;2023-09-19T09:12:48;21.30;99.90
13817;DHT22;6979;52.116;5.286;2023-09-19T09:15:18;21.50;99.90
13817;DHT22;6979;52.116;5.286;2023-09-19T09:17:47;21.80;99.90
13817;DHT22;6979;52.116;5.286;2023-09-19T09:20:16;22.10;99.90
13817;DHT22;6979;52.116;5.286;2023-09-19T09:22:51;22.50;99.90
13817;DHT22;6979;52.116;5.286;2023-09-19T09:25:20;22.80;99.90
13817;DHT22;6979;52.116;5.286;2023-09-19T09:27:59;23.10;99.90
13817;DHT22;6979;52.116;5.286;2023-09-19T09:30:33;23.40;99.90
13817;DHT22;6979;52.116;5.286;2023-09-19T09:33:10;23.60;99.90
13817;DHT22;6979;52.116;5.286;2023-09-19T09:35:38;23.70;99.90
13817;DHT22;6979;52.116;5.286;2023-09-19T09:38:13;23.70;99.90
13817;DHT22;6979;52.116;5.286;2023-09-19T09:40:49;23.70;99.90
13817;DHT22;6979;52.116;5.286;2023-09-19T09:43:33;23.70;99.90
13817;DHT22;6979;52.116;5.286;2023-09-19T09:46:15;23.60;99.90
13817;DHT22;6979;52.116;5.286;2023-09-19T09:49:01;23.50;99.90
13817;DHT22;6979;52.116;5.286;2023-09-19T09:51:44;23.40;99.90
13817;DHT22;6979;52.116;5.286;2023-09-19T09:54:23;23.30;99.90
13817;DHT22;6979;52.116;5.286;2023-09-19T09:56:58;23.20;99.90
13817;DHT22;6979;52.116;5.286;2023-09-19T09:59:49;23.10;99.90
13817;DHT22;6979;52.116;5.286;2023-09-19T10:02:17;23.00;99.90
13817;DHT22;6979;52.116;5.286;2023-09-19T10:04:51;23.00;99.90
13817;DHT22;6979;52.116;5.286;2023-09-19T10:07:30;23.00;99.90
13817;DHT22;6979;52.116;5.286;2023-09-19T10:10:04;23.00;99.90
13817;DHT22;6979;52.116;5.286;2023-09-19T10:12:43;22.90;99.90
13817;DHT22;6979;52.116;5.286;2023-09-19T10:15:12;22.90;99.90
13817;DHT22;6979;52.116;5.286;2023-09-19T10:17:42;22.80;99.90
13817;DHT22;6979;52.116;5.286;2023-09-19T10:20:15;22.60;99.90
13817;DHT22;6979;52.116;5.286;2023-09-19T10:23:05;22.60;99.90
13817;DHT22;6979;52.116;5.286;2023-09-19T10:25:37;22.70;99.90
13817;DHT22;6979;52.116;5.286;2023-09-19T10:28:08;22.80;99.90
13817;DHT22;6979;52.116;5.286;2023-09-19T10:30:38;23.00;99.90
13817;DHT22;6979;52.116;5.286;2023-09-19T10:33:09;23.10;99.90
13817;DHT22;6979;52.116;5.286;2023-09-19T10:35:41;23.30;99.90
13817;DHT22;6979;52.116;5.286;2023-09-19T10:38:10;23.50;99.90
13817;DHT22;6979;52.116;5.286;2023-09-19T10:40:38;23.90;99.90
13817;DHT22;6979;52.116;5.286;2023-09-19T10:43:12;24.20;99.90
13817;DHT22;6979;52.116;5.286;2023-09-19T10:45:41;24.60;99.90
13817;DHT22;6979;52.116;5.286;2023-09-19T10:48:10;24.70;99.90
13817;DHT22;6979;52.116;5.286;2023-09-19T10:50:45;24.80;99.90
13817;DHT22;6979;52.116;5.286;2023-09-19T10:53:14;24.80;99.70
13817;DHT22;6979;52.116;5.286;2023-09-19T10:55:47;24.80;99.40
13817;DHT22;6979;52.116;5.286;2023-09-19T10:58:27;24.80;98.90
13817;DHT22;6979;52.116;5.286;2023-09-19T11:00:55;24.80;98.00
13817;DHT22;6979;52.116;5.286;2023-09-19T11:03:23;24.70;98.50
13817;DHT22;6979;52.116;5.286;2023-09-19T11:06:06;24.60;98.50
13817;DHT22;6979;52.116;5.286;2023-09-19T11:08:59;24.60;98.80
13817;DHT22;6979;52.116;5.286;2023-09-19T11:11:50;24.50;98.80
13817;DHT22;6979;52.116;5.286;2023-09-19T11:14:41;24.50;99.50
13817;DHT22;6979;52.116;5.286;2023-09-19T11:20:32;24.40;99.10
13817;DHT22;6979;52.116;5.286;2023-09-19T11:23:23;24.40;98.70
13817;DHT22;6979;52.116;5.286;2023-09-19T11:25:51;24.30;99.20
13817;DHT22;6979;52.116;5.286;2023-09-19T11:28:43;24.20;99.60
13817;DHT22;6979;52.116;5.286;2023-09-19T11:34:47;23.90;99.50
13817;DHT22;6979;52.116;5.286;2023-09-19T11:40:45;23.60;99.70
13817;DHT22;6979;52.116;5.286;2023-09-19T11:43:32;23.40;99.90
13817;DHT22;6979;52.116;5.286;2023-09-19T11:46:07;23.20;99.90
13817;DHT22;6979;52.116;5.286;2023-09-19T11:48:41;23.20;99.90
13817;DHT22;6979;52.116;5.286;2023-09-19T11:51:13;23.10;99.90
13817;DHT22;6979;52.116;5.286;2023-09-19T11:53:48;23.00;99.90
13817;DHT22;6979;52.116;5.286;2023-09-19T11:56:17;23.00;99.90
13817;DHT22;6979;52.116;5.286;2023-09-19T11:58:44;22.90;99.90
13817;DHT22;6979;52.116;5.286;2023-09-19T12:01:19;22.90;99.90
13817;DHT22;6979;52.116;5.286;2023-09-19T12:03:52;22.90;99.90
13817;DHT22;6979;52.116;5.286;2023-09-19T12:06:21;22.80;99.90
13817;DHT22;6979;52.116;5.286;2023-09-19T12:08:49;22.80;99.90
13817;DHT22;6979;52.116;5.286;2023-09-19T12:11:17;22.90;99.90
13817;DHT22;6979;52.116;5.286;2023-09-19T12:13:46;22.90;99.90
13817;DHT22;6979;52.116;5.286;2023-09-19T12:16:15;22.80;99.90
13817;DHT22;6979;52.116;5.286;2023-09-19T12:18:43;22.90;99.90
13817;DHT22;6979;52.116;5.286;2023-09-19T12:21:29;22.90;99.90
13817;DHT22;6979;52.116;5.286;2023-09-19T12:24:04;22.80;99.90
13817;DHT22;6979;52.116;5.286;2023-09-19T12:26:39;22.80;99.90
13817;DHT22;6979;52.116;5.286;2023-09-19T12:29:14;22.80;99.90
13817;DHT22;6979;52.116;5.286;2023-09-19T12:31:48;22.80;99.90
13817;DHT22;6979;52.116;5.286;2023-09-19T12:34:19;22.80;99.90
13817;DHT22;6979;52.116;5.286;2023-09-19T12:36:48;22.80;99.90
13817;DHT22;6979;52.116;5.286;2023-09-19T12:39:24;22.80;99.90
13817;DHT22;6979;52.116;5.286;2023-09-19T12:41:52;22.80;99.90
13817;DHT22;6979;52.116;5.286;2023-09-19T12:44:20;22.80;99.90
13817;DHT22;6979;52.116;5.286;2023-09-19T12:46:50;22.80;99.90
13817;DHT22;6979;52.116;5.286;2023-09-19T12:49:20;22.70;99.90
13817;DHT22;6979;52.116;5.286;2023-09-19T12:51:55;22.70;99.90
13817;DHT22;6979;52.116;5.286;2023-09-19T12:54:24;22.70;99.90
13817;DHT22;6979;52.116;5.286;2023-09-19T12:56:54;22.70;99.90
13817;DHT22;6979;52.116;5.286;2023-09-19T12:59:29;22.70;99.90
13817;DHT22;6979;52.116;5.286;2023-09-19T13:02:04;22.70;99.90
13817;DHT22;6979;52.116;5.286;2023-09-19T13:04:33;22.70;99.90
13817;DHT22;6979;52.116;5.286;2023-09-19T13:07:07;22.70;99.90
13817;DHT22;6979;52.116;5.286;2023-09-19T13:09:34;22.70;99.90
13817;DHT22;6979;52.116;5.286;2023-09-19T13:12:01;22.70;99.90
13817;DHT22;6979;52.116;5.286;2023-09-19T13:14:30;22.70;99.90
13817;DHT22;6979;52.116;5.286;2023-09-19T13:17:00;22.60;99.90
13817;DHT22;6979;52.116;5.286;2023-09-19T13:19:42;22.60;99.90
13817;DHT22;6979;52.116;5.286;2023-09-19T13:22:37;22.50;99.90
13817;DHT22;6979;52.116;5.286;2023-09-19T13:25:06;22.40;99.90
13817;DHT22;6979;52.116;5.286;2023-09-19T13:27:33;22.30;99.90
13817;DHT22;6979;52.116;5.286;2023-09-19T13:30:00;22.30;99.90
13817;DHT22;6979;52.116;5.286;2023-09-19T13:32:27;22.30;99.90
13817;DHT22;6979;52.116;5.286;2023-09-19T13:34:56;22.30;99.90
13817;DHT22;6979;52.116;5.286;2023-09-19T13:37:23;22.30;99.90
13817;DHT22;6979;52.116;5.286;2023-09-19T13:39:53;22.30;99.90
13817;DHT22;6979;52.116;5.286;2023-09-19T13:42:20;22.40;99.90
13817;DHT22;6979;52.116;5.286;2023-09-19T13:44:47;22.40;99.90
13817;DHT22;6979;52.116;5.286;2023-09-19T13:47:14;22.40;99.90
13817;DHT22;6979;52.116;5.286;2023-09-19T13:49:42;22.50;99.90
13817;DHT22;6979;52.116;5.286;2023-09-19T13:52:10;22.60;99.90
13817;DHT22;6979;52.116;5.286;2023-09-19T13:54:39;22.60;99.90
13817;DHT22;6979;52.116;5.286;2023-09-19T13:57:08;22.60;99.90
13817;DHT22;6979;52.116;5.286;2023-09-19T13:59:35;22.70;99.90
13817;DHT22;6979;52.116;5.286;2023-09-19T14:02:02;22.70;99.90
13817;DHT22;6979;52.116;5.286;2023-09-19T14:04:31;22.70;99.90
13817;DHT22;6979;52.116;5.286;2023-09-19T14:07:00;22.70;99.90
13817;DHT22;6979;52.116;5.286;2023-09-19T14:09:27;22.70;99.90
13817;DHT22;6979;52.116;5.286;2023-09-19T14:11:54;22.70;99.90
13817;DHT22;6979;52.116;5.286;2023-09-19T14:14:22;22.70;99.90
13817;DHT22;6979;52.116;5.286;2023-09-19T14:16:49;22.70;99.90
13817;DHT22;6979;52.116;5.286;2023-09-19T14:19:16;22.70;99.90
13817;DHT22;6979;52.116;5.286;2023-09-19T14:21:43;22.70;99.90
13817;DHT22;6979;52.116;5.286;2023-09-19T14:24:10;22.70;99.90
13817;DHT22;6979;52.116;5.286;2023-09-19T14:26:38;22.70;99.90
13817;DHT22;6979;52.116;5.286;2023-09-19T14:29:05;22.70;99.90
13817;DHT22;6979;52.116;5.286;2023-09-19T14:31:38;22.70;99.90
13817;DHT22;6979;52.116;5.286;2023-09-19T14:34:06;22.70;99.90
13817;DHT22;6979;52.116;5.286;2023-09-19T14:36:35;22.70;99.90
13817;DHT22;6979;52.116;5.286;2023-09-19T14:39:02;22.70;99.90
13817;DHT22;6979;52.116;5.286;2023-09-19T14:41:29;22.70;99.90
13817;DHT22;6979;52.116;5.286;2023-09-19T14:43:57;22.70;99.90
13817;DHT22;6979;52.116;5.286;2023-09-19T14:46:23;22.70;99.90
13817;DHT22;6979;52.116;5.286;2023-09-19T14:48:52;22.70;99.90
13817;DHT22;6979;52.116;5.286;2023-09-19T14:51:19;22.70;99.90
13817;DHT22;6979;52.116;5.286;2023-09-19T14:53:46;22.60;99.90
13817;DHT22;6979;52.116;5.286;2023-09-19T14:56:14;22.60;99.90
13817;DHT22;6979;52.116;5.286;2023-09-19T14:58:44;22.60;99.90
13817;DHT22;6979;52.116;5.286;2023-09-19T15:01:12;22.60;99.90
13817;DHT22;6979;52.116;5.286;2023-09-19T15:03:40;22.60;99.90
13817;DHT22;6979;52.116;5.286;2023-09-19T15:06:10;22.50;99.90
13817;DHT22;6979;52.116;5.286;2023-09-19T15:08:41;22.50;99.90
13817;DHT22;6979;52.116;5.286;2023-09-19T15:11:13;22.50;99.90
13817;DHT22;6979;52.116;5.286;2023-09-19T15:13:42;22.40;99.90
13817;DHT22;6979;52.116;5.286;2023-09-19T15:16:10;22.40;99.90
13817;DHT22;6979;52.116;5.286;2023-09-19T15:18:39;22.40;99.90
13817;DHT22;6979;52.116;5.286;2023-09-19T15:21:09;22.40;99.90
13817;DHT22;6979;52.116;5.286;2023-09-19T15:23:38;22.40;99.90
13817;DHT22;6979;52.116;5.286;2023-09-19T15:26:06;22.40;99.90
13817;DHT22;6979;52.116;5.286;2023-09-19T15:28:34;22.40;99.90
13817;DHT22;6979;52.116;5.286;2023-09-19T15:31:03;22.40;99.90
13817;DHT22;6979;52.116;5.286;2023-09-19T15:33:31;22.40;99.90
13817;DHT22;6979;52.116;5.286;2023-09-19T15:36:02;22.40;99.90
13817;DHT22;6979;52.116;5.286;2023-09-19T15:38:31;22.40;99.90
13817;DHT22;6979;52.116;5.286;2023-09-19T15:40:58;22.50;99.90
13817;DHT22;6979;52.116;5.286;2023-09-19T15:43:26;22.50;99.90
13817;DHT22;6979;52.116;5.286;2023-09-19T15:45:53;22.50;99.90
13817;DHT22;6979;52.116;5.286;2023-09-19T15:48:19;22.50;99.90
13817;DHT22;6979;52.116;5.286;2023-09-19T15:50:47;22.40;99.90
13817;DHT22;6979;52.116;5.286;2023-09-19T15:53:14;22.40;99.90
13817;DHT22;6979;52.116;5.286;2023-09-19T15:55:43;22.30;99.90
13817;DHT22;6979;52.116;5.286;2023-09-19T15:58:11;22.30;99.90
13817;DHT22;6979;52.116;5.286;2023-09-19T16:00:41;22.10;99.90
13817;DHT22;6979;52.116;5.286;2023-09-19T16:03:08;22.10;99.90
13817;DHT22;6979;52.116;5.286;2023-09-19T16:05:36;22.00;99.90
13817;DHT22;6979;52.116;5.286;2023-09-19T16:08:06;21.90;99.90
13817;DHT22;6979;52.116;5.286;2023-09-19T16:10:35;21.90;99.90
13817;DHT22;6979;52.116;5.286;2023-09-19T16:13:04;21.90;99.90